LAKE NATOMA (NIMBUS DAM) (NAT)

Elevation: 132' · AMERICAN R basin · Operator: US Bureau of Reclamation

Provisional data, subject to change.
Query executed Sunday at 3:56:01   clock

Select a sensor type for a plot of data.
Note: Reservoir Flows are daily averages.

Earlier

Date RES ELE    STORAGE    RES CHG    OUTFLOW    INFLOW    SPILL    DIS PWR   
 FEET   AF   AF   CFS   CFS   CFS   CFS  
12/27/2014 122.80 7701 45 932 956 0 862
12/28/2014 122.72 7665 -36 927 910 0 857
12/29/2014 123.05 7815 150 925 1002 0 855
12/30/2014 122.61 7616 -199 925 825 0 855
12/31/2014 122.49 7562 -54 936 909 0 866
01/01/2015 122.78 7692 130 930 996 0 860
01/02/2015 123.38 7970 278 934 1074 0 864
01/03/2015 122.97 7778 -192 924 828 0 854
01/04/2015 123.08 7829 51 932 959 0 855
01/05/2015 123.16 7866 37 940 959 0 850
01/06/2015 123.11 7843 -23 936 925 0 846
01/07/2015 122.06 7368 -475 937 699 0 847
01/08/2015 122.30 7476 108 940 994 0 850
01/09/2015 123.46 8007 531 943 1211 0 853
01/10/2015 123.82 8176 169 943 1028 0 853
01/11/2015 123.88 8205 29 942 957 0 852
01/12/2015 123.49 8021 -184 927 835 0 847
01/13/2015 123.45 8003 -18 928 920 0 858
01/14/2015 123.40 7979 -24 937 926 0 867
01/15/2015 122.93 7760 -219 932 822 0 862
01/16/2015 123.07 7824 64 935 968 0 865
01/17/2015 122.63 7625 -199 937 837 0 867
01/18/2015 122.67 7643 18 941 950 0 866
01/19/2015 123.02 7800 157 950 1029 0 865
01/20/2015 123.23 7899 99 940 990 0 854
01/21/2015 122.92 7755 -144 975 902 0 865
01/22/2015 122.18 7422 -333 967 799 0 857
01/23/2015 122.22 7440 18 924 933 0 855
01/24/2015 -- -- -- -- -- -- --
01/25/2015 -- -- -- -- -- -- --

Later | Latest

Warning! This data is preliminary and subject to revision.

Show NAT Map | Plot NAT Data | 1 Month NAT Data | Real-Time NAT Data | NAT Info